sensor_id;sensor_type;location;lat;lon;timestamp;temperature;humidity
51908;DHT22;39320;53.214;6.556;2023-04-03T00:01:31;6.10;99.90
51908;DHT22;39320;53.214;6.556;2023-04-03T00:03:57;6.10;99.90
51908;DHT22;39320;53.214;6.556;2023-04-03T00:06:23;6.10;99.90
51908;DHT22;39320;53.214;6.556;2023-04-03T00:08:49;6.10;99.90
51908;DHT22;39320;53.214;6.556;2023-04-03T00:11:15;6.00;99.90
51908;DHT22;39320;53.214;6.556;2023-04-03T00:13:42;6.00;99.90
51908;DHT22;39320;53.214;6.556;2023-04-03T00:16:09;6.00;99.90
51908;DHT22;39320;53.214;6.556;2023-04-03T00:18:36;6.00;99.90
51908;DHT22;39320;53.214;6.556;2023-04-03T00:21:02;5.90;99.90
51908;DHT22;39320;53.214;6.556;2023-04-03T00:23:28;5.80;99.90
51908;DHT22;39320;53.214;6.556;2023-04-03T00:25:57;5.80;99.90
51908;DHT22;39320;53.214;6.556;2023-04-03T00:28:23;5.90;99.90
51908;DHT22;39320;53.214;6.556;2023-04-03T00:30:49;5.80;99.90
51908;DHT22;39320;53.214;6.556;2023-04-03T00:33:15;5.80;99.90
51908;DHT22;39320;53.214;6.556;2023-04-03T00:35:41;5.80;99.90
51908;DHT22;39320;53.214;6.556;2023-04-03T00:38:08;5.70;99.90
51908;DHT22;39320;53.214;6.556;2023-04-03T00:40:39;5.80;99.90
51908;DHT22;39320;53.214;6.556;2023-04-03T00:43:15;5.70;99.90
51908;DHT22;39320;53.214;6.556;2023-04-03T00:45:44;5.70;99.90
51908;DHT22;39320;53.214;6.556;2023-04-03T00:48:15;5.70;99.90
51908;DHT22;39320;53.214;6.556;2023-04-03T00:50:43;5.70;99.90
51908;DHT22;39320;53.214;6.556;2023-04-03T00:53:14;5.60;99.90
51908;DHT22;39320;53.214;6.556;2023-04-03T00:55:41;5.90;99.90
51908;DHT22;39320;53.214;6.556;2023-04-03T00:58:08;5.50;99.90
51908;DHT22;39320;53.214;6.556;2023-04-03T01:00:38;5.50;99.90
51908;DHT22;39320;53.214;6.556;2023-04-03T01:03:05;5.50;99.90
51908;DHT22;39320;53.214;6.556;2023-04-03T01:05:31;5.50;99.90
51908;DHT22;39320;53.214;6.556;2023-04-03T01:07:58;5.50;99.90
51908;DHT22;39320;53.214;6.556;2023-04-03T01:10:24;5.50;99.90
51908;DHT22;39320;53.214;6.556;2023-04-03T01:12:51;5.50;99.90
51908;DHT22;39320;53.214;6.556;2023-04-03T01:15:21;5.50;99.90
51908;DHT22;39320;53.214;6.556;2023-04-03T01:25:43;5.40;99.90
51908;DHT22;39320;53.214;6.556;2023-04-03T01:28:13;5.40;99.90
51908;DHT22;39320;53.214;6.556;2023-04-03T01:33:29;5.20;99.90
51908;DHT22;39320;53.214;6.556;2023-04-03T01:35:55;5.10;99.90
51908;DHT22;39320;53.214;6.556;2023-04-03T01:38:21;5.10;99.90
51908;DHT22;39320;53.214;6.556;2023-04-03T01:40:47;5.10;99.90
51908;DHT22;39320;53.214;6.556;2023-04-03T01:43:13;5.10;99.90
51908;DHT22;39320;53.214;6.556;2023-04-03T01:45:39;5.10;99.90
51908;DHT22;39320;53.214;6.556;2023-04-03T01:48:04;5.10;99.90
51908;DHT22;39320;53.214;6.556;2023-04-03T01:50:30;5.10;99.90
51908;DHT22;39320;53.214;6.556;2023-04-03T01:52:56;5.10;99.90
51908;DHT22;39320;53.214;6.556;2023-04-03T01:55:22;5.10;99.90
51908;DHT22;39320;53.214;6.556;2023-04-03T01:57:48;5.10;99.90
51908;DHT22;39320;53.214;6.556;2023-04-03T02:00:14;5.70;99.90
51908;DHT22;39320;53.214;6.556;2023-04-03T02:02:40;5.00;99.90
51908;DHT22;39320;53.214;6.556;2023-04-03T02:05:06;5.00;99.90
51908;DHT22;39320;53.214;6.556;2023-04-03T02:07:32;4.90;99.90
51908;DHT22;39320;53.214;6.556;2023-04-03T02:09:58;4.90;99.90
51908;DHT22;39320;53.214;6.556;2023-04-03T02:12:24;4.90;99.90
51908;DHT22;39320;53.214;6.556;2023-04-03T02:14:50;4.90;99.90
51908;DHT22;39320;53.214;6.556;2023-04-03T02:17:15;4.90;99.90
51908;DHT22;39320;53.214;6.556;2023-04-03T02:19:41;4.90;99.90
51908;DHT22;39320;53.214;6.556;2023-04-03T02:22:07;4.90;99.90
51908;DHT22;39320;53.214;6.556;2023-04-03T02:24:33;4.90;99.90
51908;DHT22;39320;53.214;6.556;2023-04-03T02:26:58;4.90;99.90
51908;DHT22;39320;53.214;6.556;2023-04-03T02:29:24;4.90;99.90
51908;DHT22;39320;53.214;6.556;2023-04-03T02:31:50;4.90;99.90
51908;DHT22;39320;53.214;6.556;2023-04-03T02:34:16;4.80;99.90
51908;DHT22;39320;53.214;6.556;2023-04-03T02:36:42;4.90;99.90
51908;DHT22;39320;53.214;6.556;2023-04-03T02:39:08;4.80;99.90
51908;DHT22;39320;53.214;6.556;2023-04-03T02:41:34;4.80;99.90
51908;DHT22;39320;53.214;6.556;2023-04-03T02:44:02;4.80;99.90
51908;DHT22;39320;53.214;6.556;2023-04-03T02:46:27;4.70;99.90
51908;DHT22;39320;53.214;6.556;2023-04-03T02:48:53;4.60;99.90
51908;DHT22;39320;53.214;6.556;2023-04-03T02:51:19;4.60;99.90
51908;DHT22;39320;53.214;6.556;2023-04-03T02:53:45;4.60;99.90
51908;DHT22;39320;53.214;6.556;2023-04-03T02:56:11;4.60;99.90
51908;DHT22;39320;53.214;6.556;2023-04-03T02:58:36;4.60;99.90
51908;DHT22;39320;53.214;6.556;2023-04-03T03:01:03;4.60;99.90
51908;DHT22;39320;53.214;6.556;2023-04-03T03:03:28;4.60;99.90
51908;DHT22;39320;53.214;6.556;2023-04-03T03:06:09;4.60;99.90
51908;DHT22;39320;53.214;6.556;2023-04-03T03:08:35;4.60;99.90
51908;DHT22;39320;53.214;6.556;2023-04-03T03:11:02;4.80;99.90
51908;DHT22;39320;53.214;6.556;2023-04-03T03:13:28;4.60;99.90
51908;DHT22;39320;53.214;6.556;2023-04-03T03:15:54;4.60;99.90
51908;DHT22;39320;53.214;6.556;2023-04-03T03:18:20;4.60;99.90
51908;DHT22;39320;53.214;6.556;2023-04-03T03:20:46;4.60;99.90
51908;DHT22;39320;53.214;6.556;2023-04-03T03:23:12;4.60;99.90
51908;DHT22;39320;53.214;6.556;2023-04-03T03:25:39;4.60;99.90
51908;DHT22;39320;53.214;6.556;2023-04-03T03:28:04;4.50;99.90
51908;DHT22;39320;53.214;6.556;2023-04-03T03:30:30;4.50;99.90
51908;DHT22;39320;53.214;6.556;2023-04-03T03:32:56;4.40;99.90
51908;DHT22;39320;53.214;6.556;2023-04-03T03:35:22;4.50;99.90
51908;DHT22;39320;53.214;6.556;2023-04-03T03:37:48;4.50;99.90
51908;DHT22;39320;53.214;6.556;2023-04-03T03:40:13;4.60;99.90
51908;DHT22;39320;53.214;6.556;2023-04-03T03:42:40;4.60;99.90
51908;DHT22;39320;53.214;6.556;2023-04-03T03:45:06;4.50;99.90
51908;DHT22;39320;53.214;6.556;2023-04-03T03:47:32;4.50;99.90
51908;DHT22;39320;53.214;6.556;2023-04-03T03:49:58;4.50;99.90
51908;DHT22;39320;53.214;6.556;2023-04-03T03:52:23;4.50;99.90
51908;DHT22;39320;53.214;6.556;2023-04-03T03:54:49;4.50;99.90
51908;DHT22;39320;53.214;6.556;2023-04-03T03:57:15;4.40;99.90
51908;DHT22;39320;53.214;6.556;2023-04-03T03:59:41;4.60;99.90
51908;DHT22;39320;53.214;6.556;2023-04-03T04:02:07;4.30;99.90
51908;DHT22;39320;53.214;6.556;2023-04-03T04:04:33;4.30;99.90
51908;DHT22;39320;53.214;6.556;2023-04-03T04:06:59;4.30;99.90
51908;DHT22;39320;53.214;6.556;2023-04-03T04:09:26;4.20;99.90
51908;DHT22;39320;53.214;6.556;2023-04-03T04:11:53;4.30;99.90
51908;DHT22;39320;53.214;6.556;2023-04-03T04:14:19;4.20;99.90
51908;DHT22;39320;53.214;6.556;2023-04-03T04:16:47;4.30;99.90
51908;DHT22;39320;53.214;6.556;2023-04-03T04:19:13;4.30;99.90
51908;DHT22;39320;53.214;6.556;2023-04-03T04:21:38;4.20;99.90
51908;DHT22;39320;53.214;6.556;2023-04-03T04:24:05;4.10;99.90
51908;DHT22;39320;53.214;6.556;2023-04-03T04:26:31;4.10;99.90
51908;DHT22;39320;53.214;6.556;2023-04-03T04:28:56;4.30;99.90
51908;DHT22;39320;53.214;6.556;2023-04-03T04:31:22;4.20;99.90
51908;DHT22;39320;53.214;6.556;2023-04-03T04:33:48;4.20;99.90
51908;DHT22;39320;53.214;6.556;2023-04-03T04:36:14;4.20;99.90
51908;DHT22;39320;53.214;6.556;2023-04-03T04:38:40;4.10;99.90
51908;DHT22;39320;53.214;6.556;2023-04-03T04:41:06;4.20;99.90
51908;DHT22;39320;53.214;6.556;2023-04-03T04:43:32;4.10;99.90
51908;DHT22;39320;53.214;6.556;2023-04-03T04:46:08;4.20;99.90
51908;DHT22;39320;53.214;6.556;2023-04-03T04:48:35;4.20;99.90
51908;DHT22;39320;53.214;6.556;2023-04-03T04:51:02;4.20;99.90
51908;DHT22;39320;53.214;6.556;2023-04-03T04:53:28;4.10;99.90
51908;DHT22;39320;53.214;6.556;2023-04-03T04:55:54;4.10;99.90
51908;DHT22;39320;53.214;6.556;2023-04-03T04:58:20;4.80;99.90
51908;DHT22;39320;53.214;6.556;2023-04-03T05:00:46;4.10;99.90
51908;DHT22;39320;53.214;6.556;2023-04-03T05:03:12;4.10;99.90
51908;DHT22;39320;53.214;6.556;2023-04-03T05:05:38;4.10;99.90
51908;DHT22;39320;53.214;6.556;2023-04-03T05:08:04;4.00;99.90
51908;DHT22;39320;53.214;6.556;2023-04-03T05:10:30;4.00;99.90
51908;DHT22;39320;53.214;6.556;2023-04-03T05:12:57;4.00;99.90
51908;DHT22;39320;53.214;6.556;2023-04-03T05:15:22;3.90;99.90
51908;DHT22;39320;53.214;6.556;2023-04-03T05:17:48;3.90;99.90
51908;DHT22;39320;53.214;6.556;2023-04-03T05:20:14;3.90;99.90
51908;DHT22;39320;53.214;6.556;2023-04-03T05:22:40;3.90;99.90
51908;DHT22;39320;53.214;6.556;2023-04-03T05:25:06;3.80;99.90
51908;DHT22;39320;53.214;6.556;2023-04-03T05:27:32;3.80;99.90
51908;DHT22;39320;53.214;6.556;2023-04-03T05:29:58;3.80;99.90
51908;DHT22;39320;53.214;6.556;2023-04-03T05:32:25;3.70;99.90
51908;DHT22;39320;53.214;6.556;2023-04-03T05:34:54;3.80;99.90
51908;DHT22;39320;53.214;6.556;2023-04-03T05:37:20;3.80;99.90
51908;DHT22;39320;53.214;6.556;2023-04-03T05:39:46;3.90;99.90
51908;DHT22;39320;53.214;6.556;2023-04-03T05:42:12;3.90;99.90
51908;DHT22;39320;53.214;6.556;2023-04-03T05:44:39;3.90;99.90
51908;DHT22;39320;53.214;6.556;2023-04-03T05:47:06;4.00;99.90
51908;DHT22;39320;53.214;6.556;2023-04-03T05:49:32;3.90;99.90
51908;DHT22;39320;53.214;6.556;2023-04-03T05:51:58;4.00;99.90
51908;DHT22;39320;53.214;6.556;2023-04-03T05:54:26;4.00;99.90
51908;DHT22;39320;53.214;6.556;2023-04-03T05:56:52;4.00;99.90
51908;DHT22;39320;53.214;6.556;2023-04-03T05:59:19;4.20;99.90
51908;DHT22;39320;53.214;6.556;2023-04-03T06:01:45;4.00;99.90
51908;DHT22;39320;53.214;6.556;2023-04-03T06:04:11;4.00;99.90
51908;DHT22;39320;53.214;6.556;2023-04-03T06:09:15;3.90;99.90
51908;DHT22;39320;53.214;6.556;2023-04-03T06:11:41;4.00;99.90
51908;DHT22;39320;53.214;6.556;2023-04-03T06:14:08;4.00;99.90
51908;DHT22;39320;53.214;6.556;2023-04-03T06:16:34;4.10;99.90
51908;DHT22;39320;53.214;6.556;2023-04-03T06:19:00;4.10;99.90
51908;DHT22;39320;53.214;6.556;2023-04-03T06:21:27;4.10;99.90
51908;DHT22;39320;53.214;6.556;2023-04-03T06:23:52;4.10;99.90
51908;DHT22;39320;53.214;6.556;2023-04-03T06:26:18;4.20;99.90
51908;DHT22;39320;53.214;6.556;2023-04-03T06:28:44;4.20;99.90
51908;DHT22;39320;53.214;6.556;2023-04-03T06:31:10;4.30;99.90
51908;DHT22;39320;53.214;6.556;2023-04-03T06:33:36;4.30;99.90
51908;DHT22;39320;53.214;6.556;2023-04-03T06:36:04;4.30;99.90
51908;DHT22;39320;53.214;6.556;2023-04-03T06:38:31;4.30;99.90
51908;DHT22;39320;53.214;6.556;2023-04-03T06:40:57;4.30;99.90
51908;DHT22;39320;53.214;6.556;2023-04-03T06:43:23;4.40;99.90
51908;DHT22;39320;53.214;6.556;2023-04-03T06:45:50;4.40;99.90
51908;DHT22;39320;53.214;6.556;2023-04-03T06:48:16;4.40;99.90
51908;DHT22;39320;53.214;6.556;2023-04-03T06:50:42;4.40;99.90
51908;DHT22;39320;53.214;6.556;2023-04-03T06:53:08;4.40;99.90
51908;DHT22;39320;53.214;6.556;2023-04-03T06:55:34;4.40;99.90
51908;DHT22;39320;53.214;6.556;2023-04-03T06:58:01;4.40;99.90
51908;DHT22;39320;53.214;6.556;2023-04-03T07:00:27;4.50;99.90
51908;DHT22;39320;53.214;6.556;2023-04-03T07:02:53;4.50;99.90
51908;DHT22;39320;53.214;6.556;2023-04-03T07:05:19;4.60;99.90
51908;DHT22;39320;53.214;6.556;2023-04-03T07:07:45;4.70;99.90
51908;DHT22;39320;53.214;6.556;2023-04-03T07:10:11;4.80;99.90
51908;DHT22;39320;53.214;6.556;2023-04-03T07:12:37;4.90;99.90
51908;DHT22;39320;53.214;6.556;2023-04-03T07:15:05;4.90;99.90
51908;DHT22;39320;53.214;6.556;2023-04-03T07:17:31;4.90;99.90
51908;DHT22;39320;53.214;6.556;2023-04-03T07:19:56;5.00;99.90
51908;DHT22;39320;53.214;6.556;2023-04-03T07:22:22;5.00;99.90
51908;DHT22;39320;53.214;6.556;2023-04-03T07:24:48;5.00;99.90
51908;DHT22;39320;53.214;6.556;2023-04-03T07:27:14;5.10;99.90
51908;DHT22;39320;53.214;6.556;2023-04-03T07:29:40;5.20;99.90
51908;DHT22;39320;53.214;6.556;2023-04-03T07:32:06;5.20;99.90
51908;DHT22;39320;53.214;6.556;2023-04-03T07:34:32;5.20;99.90
51908;DHT22;39320;53.214;6.556;2023-04-03T07:36:58;5.20;99.90
51908;DHT22;39320;53.214;6.556;2023-04-03T07:39:25;5.20;99.90
51908;DHT22;39320;53.214;6.556;2023-04-03T07:41:51;5.30;99.90
51908;DHT22;39320;53.214;6.556;2023-04-03T07:44:17;5.20;99.90
51908;DHT22;39320;53.214;6.556;2023-04-03T07:46:43;5.20;99.90
51908;DHT22;39320;53.214;6.556;2023-04-03T07:49:09;5.30;99.90
51908;DHT22;39320;53.214;6.556;2023-04-03T07:51:35;5.30;99.90
51908;DHT22;39320;53.214;6.556;2023-04-03T07:54:01;5.40;99.90
51908;DHT22;39320;53.214;6.556;2023-04-03T07:56:27;5.40;99.90
51908;DHT22;39320;53.214;6.556;2023-04-03T07:58:53;5.40;99.90
51908;DHT22;39320;53.214;6.556;2023-04-03T08:01:19;5.40;99.90
51908;DHT22;39320;53.214;6.556;2023-04-03T08:03:45;5.50;99.90
51908;DHT22;39320;53.214;6.556;2023-04-03T08:06:11;5.60;99.90
51908;DHT22;39320;53.214;6.556;2023-04-03T08:08:37;5.60;99.90
51908;DHT22;39320;53.214;6.556;2023-04-03T08:11:03;5.50;99.90
51908;DHT22;39320;53.214;6.556;2023-04-03T08:13:31;5.50;99.90
51908;DHT22;39320;53.214;6.556;2023-04-03T08:15:57;5.50;99.90
51908;DHT22;39320;53.214;6.556;2023-04-03T08:18:24;5.50;99.90
51908;DHT22;39320;53.214;6.556;2023-04-03T08:20:51;5.60;99.90
51908;DHT22;39320;53.214;6.556;2023-04-03T08:23:18;5.50;99.90
51908;DHT22;39320;53.214;6.556;2023-04-03T08:25:44;5.60;99.90
51908;DHT22;39320;53.214;6.556;2023-04-03T08:28:11;5.70;99.90
51908;DHT22;39320;53.214;6.556;2023-04-03T08:30:41;5.70;99.90
51908;DHT22;39320;53.214;6.556;2023-04-03T08:33:07;5.60;99.90
51908;DHT22;39320;53.214;6.556;2023-04-03T08:35:41;5.70;99.90
51908;DHT22;39320;53.214;6.556;2023-04-03T08:38:08;5.70;99.90
51908;DHT22;39320;53.214;6.556;2023-04-03T08:40:34;5.70;99.90
51908;DHT22;39320;53.214;6.556;2023-04-03T08:43:23;5.70;99.90
51908;DHT22;39320;53.214;6.556;2023-04-03T08:45:57;5.70;99.90
51908;DHT22;39320;53.214;6.556;2023-04-03T08:48:42;6.00;99.90
51908;DHT22;39320;53.214;6.556;2023-04-03T08:51:17;5.80;99.90
51908;DHT22;39320;53.214;6.556;2023-04-03T08:53:57;5.80;99.90
51908;DHT22;39320;53.214;6.556;2023-04-03T08:56:25;5.90;99.90
51908;DHT22;39320;53.214;6.556;2023-04-03T08:58:56;6.00;99.90
51908;DHT22;39320;53.214;6.556;2023-04-03T09:01:33;6.00;99.90
51908;DHT22;39320;53.214;6.556;2023-04-03T09:04:12;6.00;99.90
51908;DHT22;39320;53.214;6.556;2023-04-03T09:06:39;6.00;99.90
51908;DHT22;39320;53.214;6.556;2023-04-03T09:15:00;6.10;99.90
51908;DHT22;39320;53.214;6.556;2023-04-03T09:22:56;6.20;99.90
51908;DHT22;39320;53.214;6.556;2023-04-03T09:25:33;6.10;99.90
51908;DHT22;39320;53.214;6.556;2023-04-03T09:28:01;6.20;99.90
51908;DHT22;39320;53.214;6.556;2023-04-03T09:30:28;6.20;99.90
51908;DHT22;39320;53.214;6.556;2023-04-03T09:32:56;6.30;99.90
51908;DHT22;39320;53.214;6.556;2023-04-03T09:35:32;6.20;99.90
51908;DHT22;39320;53.214;6.556;2023-04-03T09:38:01;6.20;99.90
51908;DHT22;39320;53.214;6.556;2023-04-03T09:40:38;6.30;99.90
51908;DHT22;39320;53.214;6.556;2023-04-03T09:43:27;6.40;99.90
51908;DHT22;39320;53.214;6.556;2023-04-03T09:45:54;6.40;99.90
51908;DHT22;39320;53.214;6.556;2023-04-03T09:48:24;6.40;99.90
51908;DHT22;39320;53.214;6.556;2023-04-03T09:56:03;6.50;99.90
51908;DHT22;39320;53.214;6.556;2023-04-03T09:58:32;6.50;99.90
51908;DHT22;39320;53.214;6.556;2023-04-03T10:01:00;6.60;99.90
51908;DHT22;39320;53.214;6.556;2023-04-03T10:03:31;6.60;99.90
51908;DHT22;39320;53.214;6.556;2023-04-03T10:05:59;6.80;99.90
51908;DHT22;39320;53.214;6.556;2023-04-03T10:08:29;6.80;99.90
51908;DHT22;39320;53.214;6.556;2023-04-03T10:13:56;7.00;99.90
51908;DHT22;39320;53.214;6.556;2023-04-03T10:16:46;7.00;99.90
51908;DHT22;39320;53.214;6.556;2023-04-03T10:19:31;7.00;99.90
51908;DHT22;39320;53.214;6.556;2023-04-03T10:22:02;7.00;99.90
51908;DHT22;39320;53.214;6.556;2023-04-03T10:24:49;7.00;99.90
51908;DHT22;39320;53.214;6.556;2023-04-03T10:27:48;7.10;99.10
51908;DHT22;39320;53.214;6.556;2023-04-03T10:30:31;7.10;99.60
51908;DHT22;39320;53.214;6.556;2023-04-03T10:41:02;7.10;90.70
51908;DHT22;39320;53.214;6.556;2023-04-03T10:43:50;7.10;90.00
51908;DHT22;39320;53.214;6.556;2023-04-03T10:46:33;7.10;89.70
51908;DHT22;39320;53.214;6.556;2023-04-03T10:51:41;7.10;87.40
51908;DHT22;39320;53.214;6.556;2023-04-03T10:56:50;7.20;83.60
51908;DHT22;39320;53.214;6.556;2023-04-03T11:01:51;7.30;79.30
51908;DHT22;39320;53.214;6.556;2023-04-03T11:04:19;7.30;79.80
51908;DHT22;39320;53.214;6.556;2023-04-03T11:06:51;7.30;79.90
51908;DHT22;39320;53.214;6.556;2023-04-03T11:09:27;7.40;79.50
51908;DHT22;39320;53.214;6.556;2023-04-03T11:12:02;7.40;80.20
51908;DHT22;39320;53.214;6.556;2023-04-03T11:14:35;7.60;82.30
51908;DHT22;39320;53.214;6.556;2023-04-03T11:17:19;7.70;95.40
51908;DHT22;39320;53.214;6.556;2023-04-03T11:25:33;8.00;91.00
51908;DHT22;39320;53.214;6.556;2023-04-03T11:28:05;8.00;88.60
51908;DHT22;39320;53.214;6.556;2023-04-03T11:35:47;8.10;84.70
51908;DHT22;39320;53.214;6.556;2023-04-03T11:38:33;8.10;81.90
51908;DHT22;39320;53.214;6.556;2023-04-03T11:41:03;8.20;77.60
51908;DHT22;39320;53.214;6.556;2023-04-03T11:43:32;8.20;79.10
51908;DHT22;39320;53.214;6.556;2023-04-03T11:46:09;8.20;78.90
51908;DHT22;39320;53.214;6.556;2023-04-03T11:53:43;8.30;75.50
51908;DHT22;39320;53.214;6.556;2023-04-03T11:56:28;8.30;75.20
51908;DHT22;39320;53.214;6.556;2023-04-03T12:01:51;8.30;71.90
51908;DHT22;39320;53.214;6.556;2023-04-03T12:04:20;8.40;74.30
51908;DHT22;39320;53.214;6.556;2023-04-03T12:07:18;8.50;74.20
51908;DHT22;39320;53.214;6.556;2023-04-03T12:14:56;8.70;72.70
51908;DHT22;39320;53.214;6.556;2023-04-03T12:17:37;8.70;74.50
51908;DHT22;39320;53.214;6.556;2023-04-03T12:23:29;8.80;72.30
51908;DHT22;39320;53.214;6.556;2023-04-03T12:28:43;8.80;72.80
51908;DHT22;39320;53.214;6.556;2023-04-03T12:31:10;8.90;74.20
51908;DHT22;39320;53.214;6.556;2023-04-03T12:36:50;9.10;70.80
51908;DHT22;39320;53.214;6.556;2023-04-03T12:47:43;9.30;70.80
51908;DHT22;39320;53.214;6.556;2023-04-03T12:50:28;9.30;71.10
51908;DHT22;39320;53.214;6.556;2023-04-03T12:53:10;9.40;70.00
51908;DHT22;39320;53.214;6.556;2023-04-03T12:55:37;9.50;68.50
51908;DHT22;39320;53.214;6.556;2023-04-03T12:58:17;9.60;69.60
51908;DHT22;39320;53.214;6.556;2023-04-03T13:00:46;9.60;67.20
51908;DHT22;39320;53.214;6.556;2023-04-03T13:03:23;9.60;67.80
51908;DHT22;39320;53.214;6.556;2023-04-03T13:05:50;9.60;66.90
51908;DHT22;39320;53.214;6.556;2023-04-03T13:08:16;9.70;67.40
51908;DHT22;39320;53.214;6.556;2023-04-03T13:11:03;9.70;66.90
51908;DHT22;39320;53.214;6.556;2023-04-03T13:13:29;9.70;65.60
51908;DHT22;39320;53.214;6.556;2023-04-03T13:15:56;9.80;66.30
51908;DHT22;39320;53.214;6.556;2023-04-03T13:20:49;9.80;64.80
51908;DHT22;39320;53.214;6.556;2023-04-03T13:23:17;9.80;63.80
51908;DHT22;39320;53.214;6.556;2023-04-03T13:25:46;9.90;64.20
51908;DHT22;39320;53.214;6.556;2023-04-03T13:28:16;9.80;63.10
51908;DHT22;39320;53.214;6.556;2023-04-03T13:33:33;10.00;63.90
51908;DHT22;39320;53.214;6.556;2023-04-03T13:36:24;10.10;64.40
51908;DHT22;39320;53.214;6.556;2023-04-03T13:38:59;10.10;64.00
51908;DHT22;39320;53.214;6.556;2023-04-03T13:41:33;10.20;63.90
51908;DHT22;39320;53.214;6.556;2023-04-03T13:44:35;10.30;63.60
51908;DHT22;39320;53.214;6.556;2023-04-03T13:49:42;10.30;62.70
51908;DHT22;39320;53.214;6.556;2023-04-03T13:52:33;10.40;62.50
51908;DHT22;39320;53.214;6.556;2023-04-03T13:55:31;10.30;63.50
51908;DHT22;39320;53.214;6.556;2023-04-03T13:58:00;10.40;62.80
51908;DHT22;39320;53.214;6.556;2023-04-03T14:00:32;10.50;64.50
51908;DHT22;39320;53.214;6.556;2023-04-03T14:02:58;10.30;64.20
51908;DHT22;39320;53.214;6.556;2023-04-03T14:05:24;10.30;65.10
51908;DHT22;39320;53.214;6.556;2023-04-03T14:07:51;10.30;65.80
51908;DHT22;39320;53.214;6.556;2023-04-03T14:10:18;10.50;66.20
51908;DHT22;39320;53.214;6.556;2023-04-03T14:12:44;10.60;65.80
51908;DHT22;39320;53.214;6.556;2023-04-03T14:15:26;10.50;66.00
51908;DHT22;39320;53.214;6.556;2023-04-03T14:17:53;10.40;65.90
51908;DHT22;39320;53.214;6.556;2023-04-03T14:20:21;10.20;65.80
51908;DHT22;39320;53.214;6.556;2023-04-03T14:22:48;10.10;66.70
51908;DHT22;39320;53.214;6.556;2023-04-03T14:25:15;10.10;66.40
51908;DHT22;39320;53.214;6.556;2023-04-03T14:27:47;10.00;66.60
51908;DHT22;39320;53.214;6.556;2023-04-03T14:32:51;9.90;67.90
51908;DHT22;39320;53.214;6.556;2023-04-03T14:35:18;9.80;67.10
51908;DHT22;39320;53.214;6.556;2023-04-03T14:37:45;9.70;68.00
51908;DHT22;39320;53.214;6.556;2023-04-03T14:40:19;9.80;68.90
51908;DHT22;39320;53.214;6.556;2023-04-03T14:42:45;9.80;68.30
51908;DHT22;39320;53.214;6.556;2023-04-03T14:45:12;9.80;69.00
51908;DHT22;39320;53.214;6.556;2023-04-03T14:47:48;9.90;69.10
51908;DHT22;39320;53.214;6.556;2023-04-03T14:50:26;9.80;68.90
51908;DHT22;39320;53.214;6.556;2023-04-03T14:52:55;10.00;69.30
51908;DHT22;39320;53.214;6.556;2023-04-03T14:55:23;10.10;69.30
51908;DHT22;39320;53.214;6.556;2023-04-03T14:57:49;10.20;69.10
51908;DHT22;39320;53.214;6.556;2023-04-03T15:00:18;10.40;70.10
51908;DHT22;39320;53.214;6.556;2023-04-03T15:02:44;10.60;70.80
51908;DHT22;39320;53.214;6.556;2023-04-03T15:05:14;10.60;71.10
51908;DHT22;39320;53.214;6.556;2023-04-03T15:07:54;10.70;71.80
51908;DHT22;39320;53.214;6.556;2023-04-03T15:10:26;10.60;69.90
51908;DHT22;39320;53.214;6.556;2023-04-03T15:12:52;10.50;68.20
51908;DHT22;39320;53.214;6.556;2023-04-03T15:15:19;10.40;66.90
51908;DHT22;39320;53.214;6.556;2023-04-03T15:17:55;10.30;66.60
51908;DHT22;39320;53.214;6.556;2023-04-03T15:20:27;10.50;67.70
51908;DHT22;39320;53.214;6.556;2023-04-03T15:22:53;10.50;68.10
51908;DHT22;39320;53.214;6.556;2023-04-03T15:25:19;10.40;67.70
51908;DHT22;39320;53.214;6.556;2023-04-03T15:27:45;10.50;67.40
51908;DHT22;39320;53.214;6.556;2023-04-03T15:30:16;10.90;67.80
51908;DHT22;39320;53.214;6.556;2023-04-03T15:32:42;11.20;66.30
51908;DHT22;39320;53.214;6.556;2023-04-03T15:35:08;11.40;65.30
51908;DHT22;39320;53.214;6.556;2023-04-03T15:37:34;11.50;65.70
51908;DHT22;39320;53.214;6.556;2023-04-03T15:39:59;11.70;65.20
51908;DHT22;39320;53.214;6.556;2023-04-03T15:42:25;11.70;64.80
51908;DHT22;39320;53.214;6.556;2023-04-03T15:44:51;11.40;64.00
51908;DHT22;39320;53.214;6.556;2023-04-03T15:47:17;11.10;63.80
51908;DHT22;39320;53.214;6.556;2023-04-03T15:49:43;10.80;63.70
51908;DHT22;39320;53.214;6.556;2023-04-03T15:52:09;10.70;64.20
51908;DHT22;39320;53.214;6.556;2023-04-03T15:54:35;10.50;64.40
51908;DHT22;39320;53.214;6.556;2023-04-03T15:57:00;10.50;64.80
51908;DHT22;39320;53.214;6.556;2023-04-03T15:59:26;10.40;65.30
51908;DHT22;39320;53.214;6.556;2023-04-03T16:01:54;10.20;66.00
51908;DHT22;39320;53.214;6.556;2023-04-03T16:04:20;9.90;67.00
51908;DHT22;39320;53.214;6.556;2023-04-03T16:06:46;9.70;68.30
51908;DHT22;39320;53.214;6.556;2023-04-03T16:09:12;9.50;69.10
51908;DHT22;39320;53.214;6.556;2023-04-03T16:11:38;9.50;70.10
51908;DHT22;39320;53.214;6.556;2023-04-03T16:14:07;9.40;71.00
51908;DHT22;39320;53.214;6.556;2023-04-03T16:16:33;9.40;71.20
51908;DHT22;39320;53.214;6.556;2023-04-03T16:18:59;9.40;71.50
51908;DHT22;39320;53.214;6.556;2023-04-03T16:21:24;9.50;71.40
51908;DHT22;39320;53.214;6.556;2023-04-03T16:23:52;9.50;70.90
51908;DHT22;39320;53.214;6.556;2023-04-03T16:26:17;9.40;70.70
51908;DHT22;39320;53.214;6.556;2023-04-03T16:28:43;9.40;70.30
51908;DHT22;39320;53.214;6.556;2023-04-03T16:31:09;9.40;70.80
51908;DHT22;39320;53.214;6.556;2023-04-03T16:33:35;9.30;70.50
51908;DHT22;39320;53.214;6.556;2023-04-03T16:36:03;9.30;70.20
51908;DHT22;39320;53.214;6.556;2023-04-03T16:38:30;9.30;69.50
51908;DHT22;39320;53.214;6.556;2023-04-03T16:40:56;9.20;70.50
51908;DHT22;39320;53.214;6.556;2023-04-03T16:43:26;9.10;72.10
51908;DHT22;39320;53.214;6.556;2023-04-03T16:45:52;9.00;72.90
51908;DHT22;39320;53.214;6.556;2023-04-03T16:48:18;8.90;74.00
51908;DHT22;39320;53.214;6.556;2023-04-03T16:50:48;8.80;75.30
51908;DHT22;39320;53.214;6.556;2023-04-03T16:53:14;8.70;76.90
51908;DHT22;39320;53.214;6.556;2023-04-03T16:55:40;8.60;78.10
51908;DHT22;39320;53.214;6.556;2023-04-03T16:58:06;8.60;79.50
51908;DHT22;39320;53.214;6.556;2023-04-03T17:00:32;8.50;80.60
51908;DHT22;39320;53.214;6.556;2023-04-03T17:02:59;8.50;82.00
51908;DHT22;39320;53.214;6.556;2023-04-03T17:05:26;8.40;83.00
51908;DHT22;39320;53.214;6.556;2023-04-03T17:07:51;8.40;83.80
51908;DHT22;39320;53.214;6.556;2023-04-03T17:10:17;8.30;84.30
51908;DHT22;39320;53.214;6.556;2023-04-03T17:12:43;8.40;84.80
51908;DHT22;39320;53.214;6.556;2023-04-03T17:15:09;9.20;83.90
51908;DHT22;39320;53.214;6.556;2023-04-03T17:17:35;10.00;80.30
51908;DHT22;39320;53.214;6.556;2023-04-03T17:20:02;10.60;77.10
51908;DHT22;39320;53.214;6.556;2023-04-03T17:22:29;10.90;75.10
51908;DHT22;39320;53.214;6.556;2023-04-03T17:24:55;10.90;74.20
51908;DHT22;39320;53.214;6.556;2023-04-03T17:27:21;11.30;74.00
51908;DHT22;39320;53.214;6.556;2023-04-03T17:29:46;10.80;74.50
51908;DHT22;39320;53.214;6.556;2023-04-03T17:32:12;10.40;75.70
51908;DHT22;39320;53.214;6.556;2023-04-03T17:34:38;10.10;77.10